Time;durP1;ratioP1;P1;durP2;ratioP2;P2;SDS_P1;SDS_P2;PMS_P1;PMS_P2;Temp;Humidity;BMP_temperature;BMP_pressure;BME280_temperature;BME280_humidity;BME280_pressure;Samples;Min_cycle;Max_cycle;Signal;HPM_P1;HPM_P2
2023/12/21 00:02:28;;;;;;;9.73;5.40;;;;;;;4.89;60.06;99489.94;7719938;32;37836;-78
2023/12/21 00:06:44;;;;;;;9.75;6.05;;;;;;;5.15;59.36;99467.97;7739730;32;37688;-78
2023/12/21 00:11:01;;;;;;;6.68;5.15;;;;;;;5.05;59.39;99468.59;7739320;32;39210;-78
2023/12/21 00:15:17;;;;;;;7.72;5.43;;;;;;;5.18;59.06;99446.66;7739427;32;40004;-78
2023/12/21 00:19:33;;;;;;;7.72;5.20;;;;;;;5.29;58.88;99449.53;7739369;32;38072;-78
2023/12/21 00:23:50;;;;;;;23.27;10.32;;;;;;;5.37;58.61;99451.84;7739296;32;37005;-78
2023/12/21 00:28:06;;;;;;;21.30;9.57;;;;;;;5.13;58.84;99446.59;7739206;32;39100;-78
2023/12/21 00:32:22;;;;;;;16.37;7.45;;;;;;;5.15;58.98;99452.56;7739252;32;39902;-79
2023/12/21 00:36:39;;;;;;;30.55;13.77;;;;;;;4.74;60.01;99451.81;7739063;32;38745;-78
2023/12/21 00:40:56;;;;;;;9.45;5.93;;;;;;;5.08;59.07;99444.59;7738909;32;37919;-78
2023/12/21 00:45:13;;;;;;;8.82;5.35;;;;;;;5.09;59.07;99445.44;7739134;32;40321;-78
2023/12/21 00:49:29;;;;;;;8.25;5.55;;;;;;;5.35;58.42;99443.16;7739036;32;39913;-78
2023/12/21 00:53:46;;;;;;;8.00;5.40;;;;;;;5.11;58.70;99446.00;7738929;32;38098;-78
2023/12/21 00:58:02;;;;;;;18.42;8.52;;;;;;;5.47;57.80;99441.19;7721868;32;36947;-78
2023/12/21 01:02:18;;;;;;;12.82;6.50;;;;;;;5.60;57.21;99427.31;7711969;32;39942;-78
2023/12/21 01:06:36;;;;;;;8.07;5.18;;;;;;;5.42;57.67;99436.50;7711929;32;39901;-79
2023/12/21 01:10:52;;;;;;;7.68;4.55;;;;;;;5.13;57.94;99434.97;7712032;32;38312;-78
2023/12/21 01:15:09;;;;;;;8.02;4.65;;;;;;;5.27;57.56;99428.97;7712089;32;37752;-79
2023/12/21 01:19:26;;;;;;;9.20;5.07;;;;;;;5.45;57.08;99421.69;7711912;32;39391;-78
2023/12/21 01:23:42;;;;;;;11.40;5.40;;;;;;;5.30;57.40;99418.75;7711873;32;40871;-79
2023/12/21 01:27:59;;;;;;;11.48;5.05;;;;;;;5.26;57.24;99408.44;7711913;32;38723;-79
2023/12/21 01:32:15;;;;;;;8.95;4.65;;;;;;;5.43;56.80;99397.63;7711765;32;37937;-79
2023/12/21 01:36:31;;;;;;;6.22;3.87;;;;;;;5.16;57.64;99391.25;7711724;32;39273;-78
2023/12/21 01:40:48;;;;;;;7.15;3.72;;;;;;;5.38;56.56;99385.88;7711656;32;40013;-78
2023/12/21 01:45:04;;;;;;;5.25;4.00;;;;;;;5.42;56.38;99368.13;7711716;32;37607;-78
2023/12/21 01:49:21;;;;;;;5.22;4.10;;;;;;;5.39;56.59;99371.31;7711564;32;37070;-78
2023/12/21 01:53:38;;;;;;;5.68;3.85;;;;;;;5.46;56.12;99369.25;7711649;32;39395;-78
2023/12/21 01:57:54;;;;;;;6.22;4.10;;;;;;;5.70;55.67;99367.16;7711489;32;39605;-78
2023/12/21 02:02:10;;;;;;;7.75;4.25;;;;;;;5.76;55.60;99362.63;7711305;32;37788;-78
2023/12/21 02:06:27;;;;;;;11.18;5.70;;;;;;;5.69;55.95;99362.00;7711384;32;37154;-79
2023/12/21 02:10:43;;;;;;;17.58;9.40;;;;;;;6.02;55.28;99350.28;7709583;32;39314;-78
2023/12/21 02:15:03;;;;;;;12.88;7.53;;;;;;;5.98;55.64;99347.25;7711211;32;40872;-78
2023/12/21 02:19:20;;;;;;;10.23;6.12;;;;;;;5.65;56.61;99356.25;7711122;32;38755;-78
2023/12/21 02:23:39;;;;;;;8.95;4.60;;;;;;;5.82;56.20;99335.38;7710042;32;37752;-78
2023/12/21 02:27:56;;;;;;;6.72;3.90;;;;;;;5.57;56.96;99338.59;7709955;32;40249;-79
2023/12/21 02:32:12;;;;;;;6.95;3.87;;;;;;;5.82;56.13;99329.16;7710840;32;39683;-78
2023/12/21 02:36:28;;;;;;;5.70;3.72;;;;;;;5.81;56.35;99330.22;7710899;32;37779;-79
2023/12/21 02:40:45;;;;;;;4.75;3.80;;;;;;;5.80;56.22;99332.13;7711032;32;37733;-79
2023/12/21 02:45:01;;;;;;;6.82;4.65;;;;;;;5.64;56.29;99305.97;7716622;32;40151;-79
2023/12/21 02:49:17;;;;;;;7.68;3.90;;;;;;;5.62;56.30;99308.91;7732489;32;39911;-80
2023/12/21 02:53:34;;;;;;;4.82;3.60;;;;;;;5.70;55.89;99309.53;7710605;32;37737;-80
2023/12/21 02:57:50;;;;;;;5.50;3.80;;;;;;;5.77;55.45;99310.97;7710447;32;36754;-80
2023/12/21 03:02:06;;;;;;;8.57;3.60;;;;;;;5.71;55.57;99308.47;7710459;32;39388;-78
2023/12/21 03:06:23;;;;;;;5.95;3.67;;;;;;;5.78;55.51;99309.09;7710278;32;40850;-79
2023/12/21 03:10:39;;;;;;;7.70;3.95;;;;;;;5.72;55.32;99308.22;7710145;32;39490;-78
2023/12/21 03:14:55;;;;;;;5.37;3.50;;;;;;;5.72;55.44;99302.00;7710206;32;38137;-79
2023/12/21 03:19:12;;;;;;;5.62;3.78;;;;;;;5.68;55.14;99295.47;7710263;32;40048;-79
2023/12/21 03:23:28;;;;;;;7.35;4.45;;;;;;;5.92;54.44;99277.87;7713316;32;40566;-79
2023/12/21 03:27:46;;;;;;;9.23;4.85;;;;;;;5.63;55.37;99272.66;7739296;32;37874;-81
2023/12/21 03:32:04;;;;;;;7.47;5.00;;;;;;;5.27;57.01;99253.28;7740030;32;37482;-80
2023/12/21 03:36:20;;;;;;;11.40;5.03;;;;;;;5.29;57.20;99273.84;7740142;32;40029;-80
2023/12/21 03:40:36;;;;;;;7.97;4.95;;;;;;;5.10;59.19;99284.94;7730118;32;39707;-80
2023/12/21 03:44:53;;;;;;;8.43;5.20;;;;;;;5.11;59.00;99285.78;7711873;32;37790;-80
2023/12/21 03:49:09;;;;;;;7.40;4.55;;;;;;;4.99;59.20;99273.16;7713092;32;37257;-80
2023/12/21 03:53:25;;;;;;;5.78;4.15;;;;;;;5.20;58.60;99270.75;7712989;32;39309;-79
2023/12/21 03:57:42;;;;;;;7.32;3.92;;;;;;;5.11;58.50;99275.78;7712694;32;40753;-78
2023/12/21 04:01:58;;;;;;;4.72;3.40;;;;;;;5.00;58.62;99273.97;7712450;32;37915;-78
2023/12/21 04:06:14;;;;;;;6.18;3.40;;;;;;;5.13;58.14;99256.63;7711529;32;37619;-79
2023/12/21 04:10:30;;;;;;;5.37;3.83;;;;;;;5.13;57.88;99259.31;7713922;32;39352;-78
2023/12/21 04:14:47;;;;;;;8.57;4.43;;;;;;;5.44;57.00;99241.63;7738173;32;40005;-78
2023/12/21 04:19:03;;;;;;;6.47;4.00;;;;;;;5.34;57.08;99236.09;7737916;32;38046;-79
2023/12/21 04:23:20;;;;;;;6.57;4.12;;;;;;;5.57;56.41;99230.44;7738042;32;36794;-79
2023/12/21 04:27:37;;;;;;;8.63;4.50;;;;;;;5.30;56.71;99229.56;7738018;32;39301;-79
2023/12/21 04:31:53;;;;;;;9.70;5.07;;;;;;;5.33;56.25;99229.03;7737484;32;39952;-78
2023/12/21 04:36:09;;;;;;;17.40;7.45;;;;;;;5.33;56.02;99207.41;7719465;32;38573;-78
2023/12/21 04:40:25;;;;;;;11.35;6.00;;;;;;;5.42;55.73;99197.81;7710802;32;37104;-78
2023/12/21 04:44:42;;;;;;;10.48;5.45;;;;;;;5.20;56.34;99187.78;7710919;32;39507;-79
2023/12/21 04:48:58;;;;;;;12.23;6.65;;;;;;;5.23;56.32;99192.72;7710739;32;39762;-79
2023/12/21 04:53:14;;;;;;;15.73;7.18;;;;;;;5.24;56.19;99177.28;7710716;32;38649;-79
2023/12/21 04:57:31;;;;;;;10.00;5.78;;;;;;;5.29;56.41;99179.25;7710764;32;37148;-78
2023/12/21 05:01:52;;;;;;;12.67;6.97;;;;;;;5.10;57.06;99171.44;7705483;32;166707;-78
2023/12/21 05:06:08;;;;;;;14.82;7.80;;;;;;;5.50;55.89;99154.06;7712140;32;40549;-79
2023/12/21 05:10:25;;;;;;;13.70;8.50;;;;;;;5.27;56.71;99144.38;7712107;32;37855;-78
2023/12/21 05:14:41;;;;;;;14.32;8.60;;;;;;;5.45;56.20;99145.94;7712025;32;37166;-78
2023/12/21 05:18:58;;;;;;;17.42;9.05;;;;;;;5.36;56.53;99133.94;7711884;32;39348;-78
2023/12/21 05:23:15;;;;;;;14.98;9.48;;;;;;;5.25;56.89;99128.41;7711773;32;40733;-79
2023/12/21 05:27:31;;;;;;;17.52;8.65;;;;;;;5.18;57.19;99130.50;7711547;32;38592;-78
2023/12/21 05:31:48;;;;;;;14.43;9.13;;;;;;;5.24;57.18;99118.69;7711739;32;37256;-79
2023/12/21 05:36:04;;;;;;;17.62;9.80;;;;;;;4.99;57.76;99127.28;7711838;32;39168;-79
2023/12/21 05:40:22;;;;;;;17.62;10.30;;;;;;;5.48;56.53;99123.78;7712697;32;40016;-78
2023/12/21 05:44:38;;;;;;;17.55;9.88;;;;;;;5.45;56.78;99118.91;7737424;32;37562;-78
2023/12/21 05:48:55;;;;;;;17.27;9.60;;;;;;;5.19;57.44;99109.69;7738402;32;37094;-80
2023/12/21 05:53:11;;;;;;;16.33;8.68;;;;;;;5.56;56.41;99115.22;7738389;32;39503;-79
2023/12/21 05:57:27;;;;;;;18.08;9.63;;;;;;;5.60;56.34;99092.00;7738235;32;39891;-78
2023/12/21 06:01:45;;;;;;;15.48;9.05;;;;;;;5.38;56.46;99097.47;7737967;32;38551;-79
2023/12/21 06:06:03;;;;;;;16.33;9.25;;;;;;;5.50;55.96;99089.19;7738136;32;37868;-78
2023/12/21 06:10:19;;;;;;;15.40;9.10;;;;;;;5.58;55.54;99079.81;7736742;32;39469;-78
2023/12/21 06:14:36;;;;;;;14.80;9.65;;;;;;;5.42;55.70;99081.56;7733471;32;39994;-81
2023/12/21 06:18:52;;;;;;;15.52;9.32;;;;;;;5.19;56.01;99082.66;7711519;32;38685;-80
2023/12/21 06:23:08;;;;;;;15.93;10.27;;;;;;;5.34;55.78;99087.41;7714332;32;37792;-80
2023/12/21 06:27:25;;;;;;;18.17;9.52;;;;;;;5.16;56.18;99094.81;7737509;32;40051;-80
2023/12/21 06:31:41;;;;;;;13.65;8.52;;;;;;;5.04;56.81;99094.13;7736004;32;40018;-80
2023/12/21 06:35:57;;;;;;;16.87;8.75;;;;;;;4.96;57.22;99084.56;7719297;32;37816;-81
2023/12/21 06:40:14;;;;;;;15.55;9.00;;;;;;;5.11;56.71;99075.81;7719983;32;37137;-83
2023/12/21 06:44:30;;;;;;;14.10;8.18;;;;;;;5.07;56.35;99071.97;7710218;32;39946;-80
2023/12/21 06:48:46;;;;;;;13.68;8.02;;;;;;;5.20;55.90;99076.19;7734917;32;39622;-80
2023/12/21 06:53:03;;;;;;;15.27;9.45;;;;;;;5.44;55.15;99071.31;7709221;32;38631;-80
2023/12/21 06:57:19;;;;;;;15.40;8.18;;;;;;;5.32;55.41;99079.56;7710562;32;37257;-80
2023/12/21 07:01:35;;;;;;;15.38;8.30;;;;;;;5.31;55.74;99090.62;7710483;32;39369;-80
2023/12/21 07:05:52;;;;;;;13.18;8.23;;;;;;;5.39;55.51;99072.06;7721318;32;40004;-80
2023/12/21 07:10:09;;;;;;;14.10;8.00;;;;;;;5.53;55.41;99064.34;7710181;32;38474;-81
2023/12/21 07:14:27;;;;;;;12.93;8.10;;;;;;;5.30;56.30;99068.19;7710204;32;37214;-80
2023/12/21 07:18:43;;;;;;;15.73;8.45;;;;;;;5.50;56.13;99062.16;7716025;32;39384;-80
2023/12/21 07:23:00;;;;;;;15.65;8.38;;;;;;;5.50;56.39;99062.16;7732178;32;39986;-77
2023/12/21 07:27:16;;;;;;;14.05;8.52;;;;;;;5.77;55.93;99055.91;7716753;32;37752;-78
2023/12/21 07:31:32;;;;;;;14.13;8.75;;;;;;;6.01;55.54;99061.81;7703790;32;36806;-80
2023/12/21 07:35:48;;;;;;;16.95;9.05;;;;;;;6.07;55.50;99059.94;7709750;32;39263;-79
2023/12/21 07:40:05;;;;;;;15.65;8.60;;;;;;;6.08;55.52;99056.97;7709362;32;40059;-79
2023/12/21 07:44:22;;;;;;;19.05;10.15;;;;;;;6.46;54.90;99046.13;7709324;32;38611;-80
2023/12/21 07:48:38;;;;;;;19.37;9.02;;;;;;;6.31;54.96;99039.56;7708874;32;37311;-79
2023/12/21 07:52:56;;;;;;;16.92;8.98;;;;;;;6.37;54.65;99043.91;7719621;32;39933;-79
2023/12/21 07:57:14;;;;;;;14.02;8.38;;;;;;;6.56;54.71;99057.00;7709094;32;39623;-80
2023/12/21 08:01:33;;;;;;;15.65;9.25;;;;;;;6.44;54.96;99053.69;7708916;32;37624;-78
2023/12/21 08:05:49;;;;;;;17.23;10.23;;;;;;;6.53;57.03;99069.16;7709638;32;37096;-80
2023/12/21 08:10:09;;;;;;;17.73;9.88;;;;;;;6.50;56.01;99063.47;7712664;32;39358;-77
2023/12/21 08:14:28;;;;;;;19.50;10.85;;;;;;;6.67;56.39;99055.16;7685928;32;40010;-79
2023/12/21 08:18:44;;;;;;;17.08;9.80;;;;;;;6.62;57.53;99055.94;7685847;32;37389;-80
2023/12/21 08:23:03;;;;;;;15.82;8.80;;;;;;;6.87;55.37;99049.81;7685963;32;36794;-82
2023/12/21 08:27:20;;;;;;;17.23;9.60;;;;;;;7.18;54.94;99040.97;7685901;32;40054;-79
2023/12/21 08:31:36;;;;;;;16.80;8.93;;;;;;;7.24;54.53;99050.75;7685763;32;39716;-80
2023/12/21 08:35:53;;;;;;;16.27;8.82;;;;;;;7.22;53.87;99053.72;7685871;32;37991;-80
2023/12/21 08:40:10;;;;;;;16.02;7.78;;;;;;;7.22;53.68;99048.28;7685694;32;37899;-80
2023/12/21 08:44:27;;;;;;;16.62;8.57;;;;;;;7.25;53.65;99041.53;7704252;32;39391;-80
2023/12/21 08:48:47;;;;;;;14.90;8.68;;;;;;;7.38;55.03;99035.59;7716690;32;40019;-80
2023/12/21 08:53:04;;;;;;;15.98;8.25;;;;;;;7.43;53.63;99024.72;7712195;32;38510;-81
2023/12/21 08:57:22;;;;;;;13.32;6.90;;;;;;;7.40;53.59;99017.16;7721847;32;37172;-79
2023/12/21 09:01:38;;;;;;;15.23;7.75;;;;;;;7.43;52.69;99010.37;7738853;32;39356;-78
2023/12/21 09:05:55;;;;;;;14.23;7.75;;;;;;;7.64;52.86;99016.59;7737336;32;40821;-75
2023/12/21 09:10:12;;;;;;;19.02;8.95;;;;;;;7.30;56.05;99022.56;7738772;32;38563;-78
2023/12/21 09:14:30;;;;;;;16.15;8.30;;;;;;;7.46;54.46;99018.78;7738977;32;36923;-79
2023/12/21 09:18:47;;;;;;;17.62;9.02;;;;;;;7.55;54.20;99008.19;7737646;32;39324;-79
2023/12/21 09:23:03;;;;;;;13.93;7.70;;;;;;;7.77;53.86;99007.94;7738668;32;39986;-79
2023/12/21 09:27:19;;;;;;;16.33;8.80;;;;;;;7.58;55.75;98990.56;7738614;32;38509;-79
2023/12/21 09:31:36;;;;;;;20.25;9.48;;;;;;;7.44;55.67;98982.97;7738635;32;38006;-79
2023/12/21 09:35:55;;;;;;;14.15;8.43;;;;;;;7.52;56.07;98982.44;7738598;32;39254;-81
2023/12/21 09:40:12;;;;;;;15.55;8.20;;;;;;;7.72;56.47;98970.75;7738361;32;39988;-71
2023/12/21 09:44:29;;;;;;;13.70;7.55;;;;;;;7.76;57.87;98949.34;7738412;32;37889;-81
2023/12/21 09:48:46;;;;;;;15.63;8.82;;;;;;;7.85;59.76;98936.84;7738376;32;37177;-82
2023/12/21 09:53:04;;;;;;;15.27;7.30;;;;;;;7.88;60.38;98939.00;7735660;32;39449;-81
2023/12/21 09:57:21;;;;;;;14.98;8.20;;;;;;;8.05;58.43;98925.13;7710411;32;39861;-80
2023/12/21 10:01:37;;;;;;;12.75;6.93;;;;;;;8.07;57.45;98905.81;7711247;32;38669;-80
2023/12/21 10:05:53;;;;;;;15.52;8.35;;;;;;;8.22;57.47;98903.03;7710328;32;37826;-80
2023/12/21 10:10:10;;;;;;;13.90;7.35;;;;;;;8.13;57.28;98883.00;7711524;32;39414;-81
2023/12/21 10:14:29;;;;;;;13.62;7.70;;;;;;;8.23;57.09;98877.53;7711341;32;39799;-81
2023/12/21 10:18:46;;;;;;;13.62;8.07;;;;;;;8.31;57.34;98873.41;7711302;32;37762;-82
2023/12/21 10:23:03;;;;;;;14.40;8.38;;;;;;;8.29;56.57;98867.44;7711192;32;36903;-82
2023/12/21 10:27:21;;;;;;;16.23;8.05;;;;;;;8.33;57.12;98857.66;7710316;32;40171;-82
2023/12/21 10:31:37;;;;;;;14.15;8.35;;;;;;;8.44;57.52;98839.44;7709652;32;39988;-82
2023/12/21 10:35:54;;;;;;;16.35;8.52;;;;;;;8.63;58.39;98817.84;7708329;32;37859;-82
2023/12/21 10:40:14;;;;;;;15.65;8.25;;;;;;;8.63;58.46;98794.19;7708793;32;37221;-82
2023/12/21 10:44:30;;;;;;;16.48;8.57;;;;;;;8.63;58.45;98786.03;7711002;32;40123;-76
2023/12/21 10:48:48;;;;;;;13.85;8.00;;;;;;;9.18;58.81;98766.00;7710825;32;39757;-79
2023/12/21 10:53:04;;;;;;;18.70;9.85;;;;;;;9.33;58.03;98751.41;7710829;32;37135;-84
2023/12/21 10:57:21;;;;;;;18.92;9.13;;;;;;;9.38;56.02;98754.91;7709494;32;37212;-84
2023/12/21 11:01:38;;;;;;;14.13;7.78;;;;;;;9.35;55.41;98736.44;7710356;32;39437;-83
2023/12/21 11:05:57;;;;;;;15.70;8.48;;;;;;;9.52;55.45;98727.81;7709787;32;39870;-83
2023/12/21 11:10:14;;;;;;;15.20;8.13;;;;;;;9.57;55.49;98721.50;7707347;32;37787;-86
2023/12/21 11:14:30;;;;;;;14.18;8.10;;;;;;;9.23;56.70;98708.00;7702847;32;37736;-84
2023/12/21 11:18:47;;;;;;;14.15;7.68;;;;;;;9.08;55.52;98690.78;7681390;32;39026;-85
2023/12/21 11:23:06;;;;;;;16.85;9.50;;;;;;;9.26;56.83;98670.19;7681240;32;40039;-85
2023/12/21 11:27:23;;;;;;;15.85;8.00;;;;;;;8.93;55.64;98666.47;7680998;32;38514;-85
2023/12/21 11:31:40;;;;;;;16.65;8.73;;;;;;;9.01;55.17;98642.19;7681247;32;37335;-85
2023/12/21 11:36:02;;;;;;;17.95;8.95;;;;;;;9.21;57.36;98622.13;7682068;32;40930;-85
2023/12/21 11:40:20;;;;;;;15.45;8.07;;;;;;;9.22;58.94;98622.91;7683163;32;39965;-85
2023/12/21 11:44:37;;;;;;;15.60;7.90;;;;;;;9.11;58.81;98607.84;7685245;32;37666;-86
2023/12/21 11:48:53;;;;;;;13.73;7.80;;;;;;;9.11;56.86;98602.41;7686273;32;37131;-86
2023/12/21 11:53:11;;;;;;;16.80;8.88;;;;;;;9.05;58.28;98592.69;7686320;32;40140;-84
2023/12/21 11:57:32;;;;;;;13.13;6.70;;;;;;;8.63;60.45;98571.41;7686286;32;40742;-84
2023/12/21 12:01:49;;;;;;;12.27;6.43;;;;;;;8.93;55.93;98550.41;7685912;32;37475;-85
2023/12/21 12:06:06;;;;;;;12.00;6.55;;;;;;;8.72;55.17;98513.72;7686211;32;37126;-84
2023/12/21 12:10:22;;;;;;;12.73;6.07;;;;;;;8.55;54.81;98500.59;7686060;32;39838;-83
2023/12/21 12:14:38;;;;;;;13.27;6.45;;;;;;;8.32;55.54;98511.16;7685687;32;39966;-78
2023/12/21 12:18:55;;;;;;;12.45;6.50;;;;;;;8.30;57.30;98497.06;7685756;32;38647;-78
2023/12/21 12:23:12;;;;;;;14.15;7.28;;;;;;;8.46;56.38;98486.84;7685987;32;37094;-78
2023/12/21 12:27:29;;;;;;;13.88;7.12;;;;;;;8.70;55.40;98491.47;7685957;32;40627;-79
2023/12/21 12:31:47;;;;;;;11.48;6.03;;;;;;;8.80;55.75;98485.91;7685766;32;39958;-78
2023/12/21 12:36:07;;;;;;;10.45;5.90;;;;;;;8.90;56.05;98476.78;7684717;32;38053;-79
2023/12/21 12:40:23;;;;;;;8.77;5.40;;;;;;;8.95;54.82;98463.97;7685714;32;37880;-79
2023/12/21 12:44:39;;;;;;;13.68;5.82;;;;;;;8.34;53.37;98451.94;7685803;32;39257;-79
2023/12/21 12:48:56;;;;;;;11.10;5.82;;;;;;;8.87;54.02;98434.72;7685625;32;40937;-79
2023/12/21 12:53:14;;;;;;;10.60;5.97;;;;;;;8.89;52.34;98426.28;7684223;32;37668;-79
2023/12/21 12:57:31;;;;;;;10.38;5.22;;;;;;;8.70;54.40;98407.25;7685668;32;36511;-79
2023/12/21 13:01:47;;;;;;;9.57;6.05;;;;;;;8.36;52.54;98394.63;7683971;32;40171;-79
2023/12/21 13:06:03;;;;;;;7.80;4.57;;;;;;;7.90;55.05;98394.06;7685571;32;39895;-79
2023/12/21 13:10:32;;;;;;;10.05;4.35;;;;;;;7.79;54.58;98373.56;7685520;32;37483;-80
2023/12/21 13:14:49;;;;;;;10.63;5.45;;;;;;;7.72;54.96;98351.41;7685294;32;38010;-80
2023/12/21 13:19:06;;;;;;;8.55;4.95;;;;;;;8.28;53.18;98334.44;7685409;32;39536;-72
2023/12/21 13:23:23;;;;;;;9.80;5.25;;;;;;;7.90;53.58;98325.44;7685395;32;39778;-80
2023/12/21 13:27:39;;;;;;;10.60;5.28;;;;;;;7.84;53.44;98305.66;7685233;32;37857;-79
2023/12/21 13:31:56;;;;;;;7.12;4.18;;;;;;;7.55;54.15;98302.22;7685328;32;37914;-79
2023/12/21 13:36:13;;;;;;;9.25;4.62;;;;;;;7.04;54.95;98304.34;7685338;32;39805;-79
2023/12/21 13:40:32;;;;;;;11.02;5.68;;;;;;;7.76;54.43;98276.50;7684987;32;40914;-78
2023/12/21 13:44:49;;;;;;;9.80;5.35;;;;;;;7.53;54.44;98268.06;7685066;32;38686;-79
2023/12/21 13:49:06;;;;;;;11.27;7.07;;;;;;;7.39;54.30;98266.34;7684985;32;37200;-79
2023/12/21 13:53:22;;;;;;;9.70;5.47;;;;;;;7.42;54.66;98268.47;7685062;32;39179;-78
2023/12/21 13:57:39;;;;;;;10.20;5.78;;;;;;;7.80;52.83;98252.31;7684834;32;40534;-80
2023/12/21 14:01:55;;;;;;;11.90;6.62;;;;;;;7.49;53.80;98271.66;7684627;32;37790;-80
2023/12/21 14:06:11;;;;;;;8.77;5.32;;;;;;;7.51;53.81;98272.97;7684174;32;37164;-79
2023/12/21 14:10:28;;;;;;;9.77;5.70;;;;;;;7.08;54.65;98262.03;7684828;32;40110;-79
2023/12/21 14:14:44;;;;;;;10.50;6.18;;;;;;;7.22;54.55;98264.88;7684756;32;39593;-78
2023/12/21 14:19:01;;;;;;;11.90;6.75;;;;;;;7.13;54.91;98285.56;7684644;32;37922;-79
2023/12/21 14:23:19;;;;;;;13.10;7.18;;;;;;;7.05;55.49;98268.00;7691640;32;38063;-79
2023/12/21 14:27:35;;;;;;;13.27;7.00;;;;;;;6.92;56.03;98261.38;7709083;32;39297;-79
2023/12/21 14:31:51;;;;;;;9.98;5.35;;;;;;;6.56;56.88;98252.75;7710052;32;39943;-79
2023/12/21 14:36:08;;;;;;;15.07;8.07;;;;;;;6.91;56.29;98240.78;7710729;32;37760;-79
2023/12/21 14:40:25;;;;;;;16.67;8.60;;;;;;;6.79;58.07;98226.00;7710809;32;37941;-79
2023/12/21 14:44:41;;;;;;;13.55;7.07;;;;;;;6.64;57.79;98222.38;7710909;32;39387;-79
2023/12/21 14:48:58;;;;;;;13.80;6.93;;;;;;;6.65;58.19;98218.53;7710690;32;40912;-79
2023/12/21 14:53:14;;;;;;;15.10;7.85;;;;;;;6.85;59.74;98227.59;7709522;32;37486;-79
2023/12/21 14:57:30;;;;;;;14.80;8.20;;;;;;;6.48;60.16;98227.06;7709486;32;37809;-79
2023/12/21 15:01:50;;;;;;;14.82;8.05;;;;;;;6.98;59.18;98204.44;7710330;32;39368;-78
2023/12/21 15:06:06;;;;;;;13.15;7.22;;;;;;;6.98;59.33;98194.37;7710595;32;39923;-78
2023/12/21 15:10:23;;;;;;;14.70;8.32;;;;;;;7.31;58.82;98167.47;7710351;32;37798;-79
2023/12/21 15:14:39;;;;;;;16.85;9.07;;;;;;;7.33;59.10;98170.72;7710791;32;37965;-79
2023/12/21 15:18:55;;;;;;;22.42;9.90;;;;;;;7.00;59.73;98181.34;7713375;32;40095;-81
2023/12/21 15:23:12;;;;;;;18.67;10.57;;;;;;;6.66;60.93;98149.75;7712906;32;40822;-80
2023/12/21 15:27:29;;;;;;;13.73;8.65;;;;;;;6.69;60.64;98151.06;7712699;32;37948;-80
2023/12/21 15:31:46;;;;;;;14.85;9.00;;;;;;;6.66;60.62;98141.63;7713212;32;37108;-81
2023/12/21 15:36:03;;;;;;;19.85;9.10;;;;;;;6.90;60.33;98132.72;7712079;32;39151;-81
2023/12/21 15:40:19;;;;;;;20.98;9.82;;;;;;;6.68;61.00;98116.97;7711824;32;40726;-80
2023/12/21 15:44:38;;;;;;;17.87;9.48;;;;;;;6.51;61.01;98118.22;7713279;32;38485;-79
2023/12/21 15:48:54;;;;;;;19.40;10.13;;;;;;;6.25;62.46;98104.13;7713116;32;36863;-78
2023/12/21 15:53:11;;;;;;;18.40;9.63;;;;;;;6.41;62.06;98085.03;7713041;32;39479;-78
2023/12/21 15:57:29;;;;;;;18.20;8.38;;;;;;;6.61;61.58;98079.41;7712945;32;40031;-79
2023/12/21 16:01:46;;;;;;;18.27;9.35;;;;;;;6.33;62.77;98068.31;7712563;32;38712;-77
2023/12/21 16:06:03;;;;;;;19.67;9.70;;;;;;;6.13;64.10;98052.28;7712836;32;38654;-77
2023/12/21 16:10:19;;;;;;;14.43;8.60;;;;;;;6.28;63.91;98033.19;7712855;32;39372;-78
2023/12/21 16:14:35;;;;;;;17.12;9.32;;;;;;;6.12;63.56;98037.13;7712734;32;39931;-77
2023/12/21 16:18:52;;;;;;;18.58;10.13;;;;;;;6.26;63.77;98029.97;7712819;32;37877;-77
2023/12/21 16:23:08;;;;;;;18.17;9.13;;;;;;;6.12;64.93;98026.31;7712602;32;37905;-77
2023/12/21 16:27:25;;;;;;;22.42;10.68;;;;;;;5.97;65.33;98017.25;7712207;32;39416;-77
2023/12/21 16:31:41;;;;;;;15.45;8.35;;;;;;;5.89;66.71;98003.50;7712450;32;40134;-78
2023/12/21 16:35:58;;;;;;;18.70;9.35;;;;;;;6.08;64.68;98009.03;7712366;32;38714;-77
2023/12/21 16:40:16;;;;;;;15.55;9.65;;;;;;;5.78;65.94;97997.41;7712524;32;36959;-78
2023/12/21 16:44:32;;;;;;;13.13;7.75;;;;;;;5.96;64.96;97980.47;7712580;32;38776;-78
2023/12/21 16:48:49;;;;;;;15.52;9.35;;;;;;;6.05;65.17;97969.03;7712243;32;40085;-78
2023/12/21 16:53:05;;;;;;;14.75;8.93;;;;;;;6.10;65.42;97953.53;7712293;32;38713;-78
2023/12/21 16:57:22;;;;;;;16.65;9.82;;;;;;;6.16;65.10;97954.31;7712228;32;38048;-78
2023/12/21 17:01:38;;;;;;;19.05;10.10;;;;;;;5.99;65.07;97942.03;7710821;32;40028;-77
2023/12/21 17:05:55;;;;;;;17.10;8.88;;;;;;;5.71;67.22;97926.59;7712199;32;39644;-78
2023/12/21 17:10:12;;;;;;;16.00;8.68;;;;;;;5.87;65.72;97924.56;7712149;32;37991;-78
2023/12/21 17:14:29;;;;;;;16.80;9.55;;;;;;;5.94;66.89;97935.84;7710919;32;36797;-78
2023/12/21 17:18:45;;;;;;;17.00;9.00;;;;;;;5.76;67.53;97903.03;7712018;32;40043;-78
2023/12/21 17:23:02;;;;;;;14.87;8.32;;;;;;;5.96;67.83;97883.09;7711854;32;39883;-77
2023/12/21 17:27:18;;;;;;;15.35;8.48;;;;;;;5.98;67.30;97867.37;7711882;32;37589;-78
2023/12/21 17:31:34;;;;;;;14.55;7.90;;;;;;;5.98;67.77;97861.16;7710820;32;36758;-77
2023/12/21 17:35:52;;;;;;;18.35;8.65;;;;;;;5.86;68.15;97855.34;7720469;32;40161;-78
2023/12/21 17:40:10;;;;;;;15.75;7.87;;;;;;;6.07;67.84;97851.34;7737686;32;39634;-77
2023/12/21 17:44:27;;;;;;;19.35;9.77;;;;;;;5.77;68.75;97828.13;7715774;32;40084;-78
2023/12/21 17:48:43;;;;;;;12.00;7.12;;;;;;;5.92;68.64;97825.25;7715573;32;37145;-78
2023/12/21 17:53:01;;;;;;;14.00;8.63;;;;;;;5.78;68.71;97821.63;7738645;32;39356;-79
2023/12/21 17:57:19;;;;;;;13.62;7.28;;;;;;;6.12;68.57;97797.16;7713068;32;40120;-78
2023/12/21 18:01:35;;;;;;;14.65;7.72;;;;;;;5.75;69.42;97793.25;7711445;32;38644;-78
2023/12/21 18:05:53;;;;;;;18.37;9.35;;;;;;;5.93;69.30;97783.59;7711381;32;36116;-78
2023/12/21 18:10:10;;;;;;;17.05;9.10;;;;;;;5.93;70.51;97778.19;7719405;32;38295;-78
2023/12/21 18:14:26;;;;;;;14.00;8.38;;;;;;;5.89;70.68;97781.75;7691422;32;38634;-78
2023/12/21 18:18:43;;;;;;;13.27;8.00;;;;;;;6.26;70.08;97780.19;7684655;32;38577;-78
2023/12/21 18:22:59;;;;;;;18.45;8.82;;;;;;;5.94;71.25;97778.97;7706013;32;37243;-76
2023/12/21 18:27:17;;;;;;;15.75;7.53;;;;;;;6.48;69.42;97768.78;7711248;32;39330;-77
2023/12/21 18:31:35;;;;;;;13.32;7.80;;;;;;;6.83;68.34;97756.56;7711170;32;39568;-77
2023/12/21 18:35:51;;;;;;;15.75;8.07;;;;;;;5.99;72.82;97744.56;7711305;32;37854;-76
2023/12/21 18:40:08;;;;;;;16.23;8.50;;;;;;;6.57;71.02;97726.38;7711039;32;37188;-76
2023/12/21 18:44:24;;;;;;;18.23;8.73;;;;;;;6.89;69.35;97712.03;7715860;32;39000;-77
2023/12/21 18:48:40;;;;;;;18.77;8.23;;;;;;;6.69;70.13;97696.12;7715010;32;39676;-76
2023/12/21 18:52:58;;;;;;;14.10;8.93;;;;;;;7.09;68.89;97686.47;7686766;32;37839;-77
2023/12/21 18:57:18;;;;;;;16.95;8.40;;;;;;;7.17;68.48;97673.31;7683906;32;36829;-77
2023/12/21 19:01:34;;;;;;;16.52;9.57;;;;;;;6.87;69.16;97664.69;7684966;32;38987;-76
2023/12/21 19:05:51;;;;;;;14.20;8.20;;;;;;;6.73;69.93;97651.13;7710478;32;39503;-76
2023/12/21 19:10:08;;;;;;;15.45;8.80;;;;;;;6.81;68.70;97634.16;7709152;32;37735;-77
2023/12/21 19:14:25;;;;;;;20.42;10.52;;;;;;;7.03;68.84;97628.06;7709403;32;37996;-77
2023/12/21 19:18:42;;;;;;;15.52;8.35;;;;;;;7.04;68.48;97621.53;7706022;32;39354;-77
2023/12/21 19:22:58;;;;;;;16.67;10.20;;;;;;;7.08;68.07;97608.19;7706287;32;39585;-78
2023/12/21 19:27:15;;;;;;;21.80;11.07;;;;;;;6.96;69.33;97608.69;7714028;32;37876;-76
2023/12/21 19:31:31;;;;;;;12.15;6.35;;;;;;;6.71;69.69;97596.44;7722853;32;37983;-77
2023/12/21 19:35:47;;;;;;;11.27;6.45;;;;;;;6.67;70.28;97563.75;7729498;32;39143;-77
2023/12/21 19:40:04;;;;;;;15.65;8.73;;;;;;;6.98;68.68;97552.31;7736057;32;40098;-75
2023/12/21 19:44:20;;;;;;;13.13;7.47;;;;;;;6.82;68.71;97540.19;7736294;32;37625;-76
2023/12/21 19:48:37;;;;;;;16.00;8.80;;;;;;;6.45;68.90;97547.41;7720769;32;37879;-77
2023/12/21 19:52:54;;;;;;;15.20;7.95;;;;;;;6.82;68.43;97515.81;7709441;32;40125;-77
2023/12/21 19:57:10;;;;;;;14.25;8.60;;;;;;;6.59;68.72;97507.63;7708552;32;40475;-77
2023/12/21 20:01:27;;;;;;;16.73;9.45;;;;;;;6.95;67.53;97514.97;7734003;32;37509;-77
2023/12/21 20:05:43;;;;;;;15.73;8.60;;;;;;;7.43;66.50;97505.53;7739017;32;36988;-78
2023/12/21 20:10:00;;;;;;;16.12;8.70;;;;;;;7.55;65.84;97513.12;7739843;32;39379;-78